sensor_id;sensor_type;location;lat;lon;timestamp;temperature;humidity
51801;DHT22;37855;53.204;6.568;2023-12-14T00:00:28;4.40;80.30
51801;DHT22;37855;53.204;6.568;2023-12-14T00:02:54;4.40;80.60
51801;DHT22;37855;53.204;6.568;2023-12-14T00:05:20;4.40;80.50
51801;DHT22;37855;53.204;6.568;2023-12-14T00:07:45;4.40;80.50
51801;DHT22;37855;53.204;6.568;2023-12-14T00:10:11;4.40;80.30
51801;DHT22;37855;53.204;6.568;2023-12-14T00:12:38;4.50;80.20
51801;DHT22;37855;53.204;6.568;2023-12-14T00:15:07;4.40;80.00
51801;DHT22;37855;53.204;6.568;2023-12-14T00:17:32;4.50;79.50
51801;DHT22;37855;53.204;6.568;2023-12-14T00:19:58;4.50;79.00
51801;DHT22;37855;53.204;6.568;2023-12-14T00:22:26;4.50;79.40
51801;DHT22;37855;53.204;6.568;2023-12-14T00:24:52;4.40;79.20
51801;DHT22;37855;53.204;6.568;2023-12-14T00:27:18;4.40;79.10
51801;DHT22;37855;53.204;6.568;2023-12-14T00:29:43;4.30;79.20
51801;DHT22;37855;53.204;6.568;2023-12-14T00:32:09;4.30;79.60
51801;DHT22;37855;53.204;6.568;2023-12-14T00:34:34;4.30;79.60
51801;DHT22;37855;53.204;6.568;2023-12-14T00:37:00;4.40;79.60
51801;DHT22;37855;53.204;6.568;2023-12-14T00:39:26;4.40;79.10
51801;DHT22;37855;53.204;6.568;2023-12-14T00:41:52;4.40;79.30
51801;DHT22;37855;53.204;6.568;2023-12-14T00:44:17;4.30;79.20
51801;DHT22;37855;53.204;6.568;2023-12-14T00:46:43;4.30;79.60
51801;DHT22;37855;53.204;6.568;2023-12-14T00:49:09;4.30;79.80
51801;DHT22;37855;53.204;6.568;2023-12-14T00:51:35;4.30;79.60
51801;DHT22;37855;53.204;6.568;2023-12-14T00:54:00;4.40;79.50
51801;DHT22;37855;53.204;6.568;2023-12-14T00:56:26;4.30;79.30
51801;DHT22;37855;53.204;6.568;2023-12-14T00:58:51;4.30;79.80
51801;DHT22;37855;53.204;6.568;2023-12-14T01:01:17;4.30;79.30
51801;DHT22;37855;53.204;6.568;2023-12-14T01:03:43;4.30;79.60
51801;DHT22;37855;53.204;6.568;2023-12-14T01:06:08;4.40;79.50
51801;DHT22;37855;53.204;6.568;2023-12-14T01:08:34;4.30;79.60
51801;DHT22;37855;53.204;6.568;2023-12-14T01:11:03;4.30;80.00
51801;DHT22;37855;53.204;6.568;2023-12-14T01:13:28;4.40;80.00
51801;DHT22;37855;53.204;6.568;2023-12-14T01:15:54;4.40;80.00
51801;DHT22;37855;53.204;6.568;2023-12-14T01:18:20;4.40;80.10
51801;DHT22;37855;53.204;6.568;2023-12-14T01:20:46;4.40;80.20
51801;DHT22;37855;53.204;6.568;2023-12-14T01:23:12;4.40;80.00
51801;DHT22;37855;53.204;6.568;2023-12-14T01:25:37;4.40;80.20
51801;DHT22;37855;53.204;6.568;2023-12-14T01:28:03;4.40;80.20
51801;DHT22;37855;53.204;6.568;2023-12-14T01:30:30;4.40;80.10
51801;DHT22;37855;53.204;6.568;2023-12-14T01:32:56;4.50;80.20
51801;DHT22;37855;53.204;6.568;2023-12-14T01:35:21;4.50;80.10
51801;DHT22;37855;53.204;6.568;2023-12-14T01:37:47;4.40;80.30
51801;DHT22;37855;53.204;6.568;2023-12-14T01:40:13;4.30;80.60
51801;DHT22;37855;53.204;6.568;2023-12-14T01:42:38;4.30;80.60
51801;DHT22;37855;53.204;6.568;2023-12-14T01:45:06;4.40;80.70
51801;DHT22;37855;53.204;6.568;2023-12-14T01:47:31;4.40;80.60
51801;DHT22;37855;53.204;6.568;2023-12-14T01:49:57;4.50;80.30
51801;DHT22;37855;53.204;6.568;2023-12-14T01:52:23;4.40;80.20
51801;DHT22;37855;53.204;6.568;2023-12-14T01:54:48;4.40;80.40
51801;DHT22;37855;53.204;6.568;2023-12-14T01:57:14;4.40;80.40
51801;DHT22;37855;53.204;6.568;2023-12-14T01:59:40;4.40;80.50
51801;DHT22;37855;53.204;6.568;2023-12-14T02:02:05;4.40;80.40
51801;DHT22;37855;53.204;6.568;2023-12-14T02:04:31;4.30;80.60
51801;DHT22;37855;53.204;6.568;2023-12-14T02:07:00;4.40;80.70
51801;DHT22;37855;53.204;6.568;2023-12-14T02:09:26;4.30;80.50
51801;DHT22;37855;53.204;6.568;2023-12-14T02:11:51;4.40;80.80
51801;DHT22;37855;53.204;6.568;2023-12-14T02:14:17;4.40;80.50
51801;DHT22;37855;53.204;6.568;2023-12-14T02:16:43;4.40;80.80
51801;DHT22;37855;53.204;6.568;2023-12-14T02:19:08;4.50;80.30
51801;DHT22;37855;53.204;6.568;2023-12-14T02:21:34;4.40;80.40
51801;DHT22;37855;53.204;6.568;2023-12-14T02:24:00;4.40;80.30
51801;DHT22;37855;53.204;6.568;2023-12-14T02:26:25;4.40;80.20
51801;DHT22;37855;53.204;6.568;2023-12-14T02:28:51;4.40;80.30
51801;DHT22;37855;53.204;6.568;2023-12-14T02:31:18;4.40;80.20
51801;DHT22;37855;53.204;6.568;2023-12-14T02:33:44;4.40;80.10
51801;DHT22;37855;53.204;6.568;2023-12-14T02:36:11;4.40;80.50
51801;DHT22;37855;53.204;6.568;2023-12-14T02:38:36;4.50;80.00
51801;DHT22;37855;53.204;6.568;2023-12-14T02:41:02;4.50;80.20
51801;DHT22;37855;53.204;6.568;2023-12-14T02:43:28;4.40;80.10
51801;DHT22;37855;53.204;6.568;2023-12-14T02:45:53;4.30;80.50
51801;DHT22;37855;53.204;6.568;2023-12-14T02:48:20;4.30;80.60
51801;DHT22;37855;53.204;6.568;2023-12-14T02:50:46;4.40;80.50
51801;DHT22;37855;53.204;6.568;2023-12-14T02:53:12;4.40;80.40
51801;DHT22;37855;53.204;6.568;2023-12-14T02:55:37;4.40;80.50
51801;DHT22;37855;53.204;6.568;2023-12-14T02:58:03;4.40;80.40
51801;DHT22;37855;53.204;6.568;2023-12-14T03:00:29;4.40;80.50
51801;DHT22;37855;53.204;6.568;2023-12-14T03:02:58;4.40;80.30
51801;DHT22;37855;53.204;6.568;2023-12-14T03:05:23;4.40;80.40
51801;DHT22;37855;53.204;6.568;2023-12-14T03:07:49;4.40;80.50
51801;DHT22;37855;53.204;6.568;2023-12-14T03:10:15;4.40;80.80
51801;DHT22;37855;53.204;6.568;2023-12-14T03:12:40;4.40;81.00
51801;DHT22;37855;53.204;6.568;2023-12-14T03:15:07;4.50;80.90
51801;DHT22;37855;53.204;6.568;2023-12-14T03:17:32;4.50;80.40
51801;DHT22;37855;53.204;6.568;2023-12-14T03:19:58;4.40;80.70
51801;DHT22;37855;53.204;6.568;2023-12-14T03:22:24;4.50;80.80
51801;DHT22;37855;53.204;6.568;2023-12-14T03:24:50;4.50;80.90
51801;DHT22;37855;53.204;6.568;2023-12-14T03:27:15;4.50;80.60
51801;DHT22;37855;53.204;6.568;2023-12-14T03:29:41;4.50;80.70
51801;DHT22;37855;53.204;6.568;2023-12-14T03:32:07;4.50;80.60
51801;DHT22;37855;53.204;6.568;2023-12-14T03:34:32;4.50;80.40
51801;DHT22;37855;53.204;6.568;2023-12-14T03:36:58;4.50;80.70
51801;DHT22;37855;53.204;6.568;2023-12-14T03:39:23;4.50;80.20
51801;DHT22;37855;53.204;6.568;2023-12-14T03:41:52;4.50;80.40
51801;DHT22;37855;53.204;6.568;2023-12-14T03:44:18;4.50;80.50
51801;DHT22;37855;53.204;6.568;2023-12-14T03:46:44;4.50;80.70
51801;DHT22;37855;53.204;6.568;2023-12-14T03:49:10;4.50;80.80
51801;DHT22;37855;53.204;6.568;2023-12-14T03:51:35;4.50;81.00
51801;DHT22;37855;53.204;6.568;2023-12-14T03:54:02;4.50;80.70
51801;DHT22;37855;53.204;6.568;2023-12-14T03:56:28;4.50;80.80
51801;DHT22;37855;53.204;6.568;2023-12-14T03:58:54;4.50;80.70
51801;DHT22;37855;53.204;6.568;2023-12-14T04:01:22;4.40;80.70
51801;DHT22;37855;53.204;6.568;2023-12-14T04:03:48;4.40;80.90
51801;DHT22;37855;53.204;6.568;2023-12-14T04:06:14;4.40;80.90
51801;DHT22;37855;53.204;6.568;2023-12-14T04:08:41;4.40;80.90
51801;DHT22;37855;53.204;6.568;2023-12-14T04:11:09;4.50;80.50
51801;DHT22;37855;53.204;6.568;2023-12-14T04:13:35;4.40;80.70
51801;DHT22;37855;53.204;6.568;2023-12-14T04:16:01;4.40;81.00
51801;DHT22;37855;53.204;6.568;2023-12-14T04:18:28;4.30;81.20
51801;DHT22;37855;53.204;6.568;2023-12-14T04:20:56;4.30;80.90
51801;DHT22;37855;53.204;6.568;2023-12-14T04:23:22;4.20;81.20
51801;DHT22;37855;53.204;6.568;2023-12-14T04:25:48;4.20;81.30
51801;DHT22;37855;53.204;6.568;2023-12-14T04:28:16;4.20;81.30
51801;DHT22;37855;53.204;6.568;2023-12-14T04:30:42;4.30;81.00
51801;DHT22;37855;53.204;6.568;2023-12-14T04:33:07;4.30;81.00
51801;DHT22;37855;53.204;6.568;2023-12-14T04:35:33;4.30;81.20
51801;DHT22;37855;53.204;6.568;2023-12-14T04:38:08;4.30;81.00
51801;DHT22;37855;53.204;6.568;2023-12-14T04:40:33;4.30;81.20
51801;DHT22;37855;53.204;6.568;2023-12-14T04:42:59;4.30;81.20
51801;DHT22;37855;53.204;6.568;2023-12-14T04:45:25;4.30;81.20
51801;DHT22;37855;53.204;6.568;2023-12-14T04:47:50;4.30;81.10
51801;DHT22;37855;53.204;6.568;2023-12-14T04:50:16;4.30;81.30
51801;DHT22;37855;53.204;6.568;2023-12-14T04:52:42;4.30;81.30
51801;DHT22;37855;53.204;6.568;2023-12-14T04:55:18;4.30;81.50
51801;DHT22;37855;53.204;6.568;2023-12-14T04:57:45;4.40;80.90
51801;DHT22;37855;53.204;6.568;2023-12-14T05:00:12;4.40;81.00
51801;DHT22;37855;53.204;6.568;2023-12-14T05:02:38;4.30;81.10
51801;DHT22;37855;53.204;6.568;2023-12-14T05:05:04;4.30;81.30
51801;DHT22;37855;53.204;6.568;2023-12-14T05:07:30;4.40;81.30
51801;DHT22;37855;53.204;6.568;2023-12-14T05:09:57;4.50;80.90
51801;DHT22;37855;53.204;6.568;2023-12-14T05:12:24;4.40;81.00
51801;DHT22;37855;53.204;6.568;2023-12-14T05:14:51;4.40;81.10
51801;DHT22;37855;53.204;6.568;2023-12-14T05:17:17;4.40;81.00
51801;DHT22;37855;53.204;6.568;2023-12-14T05:19:42;4.50;81.00
51801;DHT22;37855;53.204;6.568;2023-12-14T05:22:08;4.50;80.70
51801;DHT22;37855;53.204;6.568;2023-12-14T05:24:34;4.50;80.90
51801;DHT22;37855;53.204;6.568;2023-12-14T05:26:59;4.50;80.70
51801;DHT22;37855;53.204;6.568;2023-12-14T05:29:25;4.40;80.60
51801;DHT22;37855;53.204;6.568;2023-12-14T05:31:50;4.40;80.70
51801;DHT22;37855;53.204;6.568;2023-12-14T05:34:16;4.40;81.00
51801;DHT22;37855;53.204;6.568;2023-12-14T05:36:42;4.40;81.20
51801;DHT22;37855;53.204;6.568;2023-12-14T05:39:07;4.30;81.30
51801;DHT22;37855;53.204;6.568;2023-12-14T05:41:33;4.40;81.40
51801;DHT22;37855;53.204;6.568;2023-12-14T05:44:04;4.40;81.50
51801;DHT22;37855;53.204;6.568;2023-12-14T05:46:30;4.40;81.40
51801;DHT22;37855;53.204;6.568;2023-12-14T05:48:55;4.50;81.50
51801;DHT22;37855;53.204;6.568;2023-12-14T05:51:31;4.40;81.10
51801;DHT22;37855;53.204;6.568;2023-12-14T05:53:57;4.50;81.00
51801;DHT22;37855;53.204;6.568;2023-12-14T05:56:24;4.40;80.90
51801;DHT22;37855;53.204;6.568;2023-12-14T05:58:54;4.40;81.00
51801;DHT22;37855;53.204;6.568;2023-12-14T06:01:20;4.40;81.10
51801;DHT22;37855;53.204;6.568;2023-12-14T06:03:46;4.40;81.10
51801;DHT22;37855;53.204;6.568;2023-12-14T06:06:12;4.60;80.50
51801;DHT22;37855;53.204;6.568;2023-12-14T06:08:41;4.50;80.40
51801;DHT22;37855;53.204;6.568;2023-12-14T06:11:09;4.50;80.50
51801;DHT22;37855;53.204;6.568;2023-12-14T06:13:38;4.50;80.60
51801;DHT22;37855;53.204;6.568;2023-12-14T06:16:04;4.50;80.70
51801;DHT22;37855;53.204;6.568;2023-12-14T06:18:30;4.50;80.50
51801;DHT22;37855;53.204;6.568;2023-12-14T06:20:56;4.50;80.60
51801;DHT22;37855;53.204;6.568;2023-12-14T06:23:22;4.50;80.80
51801;DHT22;37855;53.204;6.568;2023-12-14T06:25:47;4.50;80.70
51801;DHT22;37855;53.204;6.568;2023-12-14T06:28:14;4.50;80.60
51801;DHT22;37855;53.204;6.568;2023-12-14T06:30:40;4.50;80.70
51801;DHT22;37855;53.204;6.568;2023-12-14T06:33:05;4.50;80.90
51801;DHT22;37855;53.204;6.568;2023-12-14T06:35:31;4.50;81.00
51801;DHT22;37855;53.204;6.568;2023-12-14T06:37:57;4.60;80.70
51801;DHT22;37855;53.204;6.568;2023-12-14T06:40:22;4.50;80.40
51801;DHT22;37855;53.204;6.568;2023-12-14T06:42:49;4.50;80.50
51801;DHT22;37855;53.204;6.568;2023-12-14T06:45:15;4.50;80.80
51801;DHT22;37855;53.204;6.568;2023-12-14T06:47:41;4.40;80.70
51801;DHT22;37855;53.204;6.568;2023-12-14T06:50:09;4.40;81.10
51801;DHT22;37855;53.204;6.568;2023-12-14T06:52:34;4.40;80.90
51801;DHT22;37855;53.204;6.568;2023-12-14T06:55:00;4.40;81.10
51801;DHT22;37855;53.204;6.568;2023-12-14T06:57:26;4.40;81.30
51801;DHT22;37855;53.204;6.568;2023-12-14T06:59:52;4.40;81.50
51801;DHT22;37855;53.204;6.568;2023-12-14T07:02:17;4.40;81.50
51801;DHT22;37855;53.204;6.568;2023-12-14T07:04:44;4.50;81.30
51801;DHT22;37855;53.204;6.568;2023-12-14T07:07:09;4.40;81.40
51801;DHT22;37855;53.204;6.568;2023-12-14T07:09:35;4.50;81.50
51801;DHT22;37855;53.204;6.568;2023-12-14T07:12:01;4.50;81.50
51801;DHT22;37855;53.204;6.568;2023-12-14T07:14:28;4.50;81.30
51801;DHT22;37855;53.204;6.568;2023-12-14T07:16:53;4.50;81.30
51801;DHT22;37855;53.204;6.568;2023-12-14T07:19:19;4.60;81.00
51801;DHT22;37855;53.204;6.568;2023-12-14T07:21:46;4.60;80.90
51801;DHT22;37855;53.204;6.568;2023-12-14T07:24:15;4.50;81.10
51801;DHT22;37855;53.204;6.568;2023-12-14T07:26:40;4.50;80.70
51801;DHT22;37855;53.204;6.568;2023-12-14T07:29:07;4.50;81.00
51801;DHT22;37855;53.204;6.568;2023-12-14T07:31:35;4.40;81.20
51801;DHT22;37855;53.204;6.568;2023-12-14T07:34:01;4.40;81.30
51801;DHT22;37855;53.204;6.568;2023-12-14T07:36:26;4.40;81.20
51801;DHT22;37855;53.204;6.568;2023-12-14T07:38:52;4.40;81.40
51801;DHT22;37855;53.204;6.568;2023-12-14T07:41:19;4.40;81.50
51801;DHT22;37855;53.204;6.568;2023-12-14T07:43:45;4.40;81.50
51801;DHT22;37855;53.204;6.568;2023-12-14T07:46:10;4.40;81.60
51801;DHT22;37855;53.204;6.568;2023-12-14T07:48:39;4.40;81.40
51801;DHT22;37855;53.204;6.568;2023-12-14T07:51:05;4.40;81.60
51801;DHT22;37855;53.204;6.568;2023-12-14T07:53:30;4.40;81.70
51801;DHT22;37855;53.204;6.568;2023-12-14T07:55:56;4.40;81.70
51801;DHT22;37855;53.204;6.568;2023-12-14T07:58:23;4.40;81.70
51801;DHT22;37855;53.204;6.568;2023-12-14T08:00:51;4.50;81.80
51801;DHT22;37855;53.204;6.568;2023-12-14T08:03:17;4.50;81.70
51801;DHT22;37855;53.204;6.568;2023-12-14T08:05:42;4.50;81.70
51801;DHT22;37855;53.204;6.568;2023-12-14T08:08:08;4.50;81.70
51801;DHT22;37855;53.204;6.568;2023-12-14T08:10:33;4.50;81.60
51801;DHT22;37855;53.204;6.568;2023-12-14T08:12:59;4.50;81.60
51801;DHT22;37855;53.204;6.568;2023-12-14T08:15:28;4.50;81.70
51801;DHT22;37855;53.204;6.568;2023-12-14T08:17:56;4.60;81.50
51801;DHT22;37855;53.204;6.568;2023-12-14T08:20:22;4.50;81.50
51801;DHT22;37855;53.204;6.568;2023-12-14T08:22:51;4.50;81.50
51801;DHT22;37855;53.204;6.568;2023-12-14T08:25:17;4.50;81.50
51801;DHT22;37855;53.204;6.568;2023-12-14T08:27:43;4.50;81.40
51801;DHT22;37855;53.204;6.568;2023-12-14T08:30:12;4.50;81.50
51801;DHT22;37855;53.204;6.568;2023-12-14T08:32:44;4.50;81.60
51801;DHT22;37855;53.204;6.568;2023-12-14T08:35:10;4.50;81.70
51801;DHT22;37855;53.204;6.568;2023-12-14T08:37:36;4.50;81.70
51801;DHT22;37855;53.204;6.568;2023-12-14T08:40:02;4.50;81.80
51801;DHT22;37855;53.204;6.568;2023-12-14T08:42:28;4.60;81.90
51801;DHT22;37855;53.204;6.568;2023-12-14T08:44:54;4.60;81.90
51801;DHT22;37855;53.204;6.568;2023-12-14T08:47:22;4.60;82.00
51801;DHT22;37855;53.204;6.568;2023-12-14T08:49:49;4.60;82.00
51801;DHT22;37855;53.204;6.568;2023-12-14T08:52:14;4.70;82.00
51801;DHT22;37855;53.204;6.568;2023-12-14T08:54:40;4.70;82.10
51801;DHT22;37855;53.204;6.568;2023-12-14T08:57:09;4.70;82.10
51801;DHT22;37855;53.204;6.568;2023-12-14T08:59:34;4.80;82.10
51801;DHT22;37855;53.204;6.568;2023-12-14T09:02:00;4.80;82.10
51801;DHT22;37855;53.204;6.568;2023-12-14T09:04:26;4.80;82.10
51801;DHT22;37855;53.204;6.568;2023-12-14T09:06:52;4.90;82.10
51801;DHT22;37855;53.204;6.568;2023-12-14T09:09:18;4.90;82.10
51801;DHT22;37855;53.204;6.568;2023-12-14T09:11:44;5.00;82.10
51801;DHT22;37855;53.204;6.568;2023-12-14T09:14:10;5.00;82.20
51801;DHT22;37855;53.204;6.568;2023-12-14T09:16:36;5.00;82.20
51801;DHT22;37855;53.204;6.568;2023-12-14T09:19:01;5.10;82.10
51801;DHT22;37855;53.204;6.568;2023-12-14T09:21:27;5.10;82.00
51801;DHT22;37855;53.204;6.568;2023-12-14T09:23:53;5.10;81.80
51801;DHT22;37855;53.204;6.568;2023-12-14T09:26:21;5.10;81.60
51801;DHT22;37855;53.204;6.568;2023-12-14T09:28:48;5.10;81.70
51801;DHT22;37855;53.204;6.568;2023-12-14T09:31:13;5.10;81.60
51801;DHT22;37855;53.204;6.568;2023-12-14T09:33:42;5.10;81.50
51801;DHT22;37855;53.204;6.568;2023-12-14T09:36:08;5.20;81.50
51801;DHT22;37855;53.204;6.568;2023-12-14T09:38:34;5.20;81.40
51801;DHT22;37855;53.204;6.568;2023-12-14T09:41:02;5.20;81.40
51801;DHT22;37855;53.204;6.568;2023-12-14T09:43:28;5.20;81.20
51801;DHT22;37855;53.204;6.568;2023-12-14T09:45:57;5.20;81.10
51801;DHT22;37855;53.204;6.568;2023-12-14T09:48:23;5.20;81.20
51801;DHT22;37855;53.204;6.568;2023-12-14T09:50:50;5.30;81.20
51801;DHT22;37855;53.204;6.568;2023-12-14T09:53:16;5.30;81.20
51801;DHT22;37855;53.204;6.568;2023-12-14T09:55:41;5.30;81.00
51801;DHT22;37855;53.204;6.568;2023-12-14T09:58:07;5.30;81.10
51801;DHT22;37855;53.204;6.568;2023-12-14T10:00:41;5.30;81.00
51801;DHT22;37855;53.204;6.568;2023-12-14T10:03:21;5.30;80.90
51801;DHT22;37855;53.204;6.568;2023-12-14T10:05:50;5.30;80.80
51801;DHT22;37855;53.204;6.568;2023-12-14T10:08:17;5.30;80.70
51801;DHT22;37855;53.204;6.568;2023-12-14T10:10:43;5.40;80.50
51801;DHT22;37855;53.204;6.568;2023-12-14T10:13:09;5.30;80.50
51801;DHT22;37855;53.204;6.568;2023-12-14T10:15:45;5.30;80.50
51801;DHT22;37855;53.204;6.568;2023-12-14T10:18:21;5.40;80.60
51801;DHT22;37855;53.204;6.568;2023-12-14T10:20:51;5.40;80.60
51801;DHT22;37855;53.204;6.568;2023-12-14T10:23:18;5.40;80.40
51801;DHT22;37855;53.204;6.568;2023-12-14T10:25:44;5.40;80.20
51801;DHT22;37855;53.204;6.568;2023-12-14T10:28:14;5.40;80.20
51801;DHT22;37855;53.204;6.568;2023-12-14T10:30:40;5.40;80.20
51801;DHT22;37855;53.204;6.568;2023-12-14T10:33:06;5.40;80.20
51801;DHT22;37855;53.204;6.568;2023-12-14T10:35:32;5.50;80.20
51801;DHT22;37855;53.204;6.568;2023-12-14T10:38:02;5.50;80.30
51801;DHT22;37855;53.204;6.568;2023-12-14T10:40:29;5.50;80.20
51801;DHT22;37855;53.204;6.568;2023-12-14T10:43:01;5.50;80.10
51801;DHT22;37855;53.204;6.568;2023-12-14T10:45:32;5.60;80.20
51801;DHT22;37855;53.204;6.568;2023-12-14T10:47:59;5.60;80.10
51801;DHT22;37855;53.204;6.568;2023-12-14T10:50:28;5.70;80.20
51801;DHT22;37855;53.204;6.568;2023-12-14T10:52:54;5.70;80.10
51801;DHT22;37855;53.204;6.568;2023-12-14T10:55:43;5.70;79.90
51801;DHT22;37855;53.204;6.568;2023-12-14T10:58:11;5.80;79.90
51801;DHT22;37855;53.204;6.568;2023-12-14T11:00:37;5.80;79.80
51801;DHT22;37855;53.204;6.568;2023-12-14T11:03:04;5.80;79.90
51801;DHT22;37855;53.204;6.568;2023-12-14T11:05:32;5.90;79.20
51801;DHT22;37855;53.204;6.568;2023-12-14T11:08:01;5.90;79.20
51801;DHT22;37855;53.204;6.568;2023-12-14T11:13:07;5.90;79.40
51801;DHT22;37855;53.204;6.568;2023-12-14T11:15:36;5.90;79.30
51801;DHT22;37855;53.204;6.568;2023-12-14T11:21:00;5.90;79.40
51801;DHT22;37855;53.204;6.568;2023-12-14T11:23:31;6.00;79.10
51801;DHT22;37855;53.204;6.568;2023-12-14T11:26:00;6.00;79.20
51801;DHT22;37855;53.204;6.568;2023-12-14T11:28:30;6.00;79.30
51801;DHT22;37855;53.204;6.568;2023-12-14T11:30:56;6.00;79.30
51801;DHT22;37855;53.204;6.568;2023-12-14T11:33:22;6.10;79.40
51801;DHT22;37855;53.204;6.568;2023-12-14T11:35:50;6.10;79.40
51801;DHT22;37855;53.204;6.568;2023-12-14T11:38:16;6.10;79.40
51801;DHT22;37855;53.204;6.568;2023-12-14T11:40:43;6.20;79.40
51801;DHT22;37855;53.204;6.568;2023-12-14T11:43:08;6.20;79.30
51801;DHT22;37855;53.204;6.568;2023-12-14T11:45:36;6.30;79.00
51801;DHT22;37855;53.204;6.568;2023-12-14T11:48:12;6.30;79.20
51801;DHT22;37855;53.204;6.568;2023-12-14T11:50:38;6.30;79.00
51801;DHT22;37855;53.204;6.568;2023-12-14T11:53:05;6.30;79.00
51801;DHT22;37855;53.204;6.568;2023-12-14T11:55:31;6.30;78.80
51801;DHT22;37855;53.204;6.568;2023-12-14T11:57:58;6.30;78.90
51801;DHT22;37855;53.204;6.568;2023-12-14T12:00:25;6.30;78.90
51801;DHT22;37855;53.204;6.568;2023-12-14T12:02:51;6.30;78.90
51801;DHT22;37855;53.204;6.568;2023-12-14T12:05:18;6.30;78.80
51801;DHT22;37855;53.204;6.568;2023-12-14T12:07:48;6.30;78.80
51801;DHT22;37855;53.204;6.568;2023-12-14T12:10:13;6.30;78.80
51801;DHT22;37855;53.204;6.568;2023-12-14T12:12:39;6.30;78.70
51801;DHT22;37855;53.204;6.568;2023-12-14T12:15:05;6.30;78.70
51801;DHT22;37855;53.204;6.568;2023-12-14T12:17:32;6.30;78.60
51801;DHT22;37855;53.204;6.568;2023-12-14T12:20:06;6.30;78.60
51801;DHT22;37855;53.204;6.568;2023-12-14T12:22:32;6.40;78.50
51801;DHT22;37855;53.204;6.568;2023-12-14T12:24:57;6.40;78.60
51801;DHT22;37855;53.204;6.568;2023-12-14T12:27:23;6.40;78.50
51801;DHT22;37855;53.204;6.568;2023-12-14T12:29:49;6.40;78.50
51801;DHT22;37855;53.204;6.568;2023-12-14T12:32:18;6.40;78.30
51801;DHT22;37855;53.204;6.568;2023-12-14T12:34:44;6.40;78.30
51801;DHT22;37855;53.204;6.568;2023-12-14T12:37:10;6.40;78.10
51801;DHT22;37855;53.204;6.568;2023-12-14T12:39:35;6.30;78.00
51801;DHT22;37855;53.204;6.568;2023-12-14T12:42:01;6.30;77.70
51801;DHT22;37855;53.204;6.568;2023-12-14T12:44:28;6.30;77.80
51801;DHT22;37855;53.204;6.568;2023-12-14T12:46:54;6.20;77.50
51801;DHT22;37855;53.204;6.568;2023-12-14T12:49:24;6.20;77.50
51801;DHT22;37855;53.204;6.568;2023-12-14T12:51:49;6.20;77.60
51801;DHT22;37855;53.204;6.568;2023-12-14T12:54:15;6.20;76.90
51801;DHT22;37855;53.204;6.568;2023-12-14T12:56:41;6.20;76.80
51801;DHT22;37855;53.204;6.568;2023-12-14T12:59:08;6.20;76.20
51801;DHT22;37855;53.204;6.568;2023-12-14T13:01:34;6.20;76.40
51801;DHT22;37855;53.204;6.568;2023-12-14T13:04:00;6.10;76.60
51801;DHT22;37855;53.204;6.568;2023-12-14T13:06:26;6.10;76.80
51801;DHT22;37855;53.204;6.568;2023-12-14T13:08:52;6.10;76.60
51801;DHT22;37855;53.204;6.568;2023-12-14T13:11:18;6.10;76.70
51801;DHT22;37855;53.204;6.568;2023-12-14T13:13:45;6.10;76.60
51801;DHT22;37855;53.204;6.568;2023-12-14T13:16:12;6.10;76.60
51801;DHT22;37855;53.204;6.568;2023-12-14T13:18:40;6.10;76.60
51801;DHT22;37855;53.204;6.568;2023-12-14T13:21:06;6.10;76.70
51801;DHT22;37855;53.204;6.568;2023-12-14T13:23:32;6.00;77.00
51801;DHT22;37855;53.204;6.568;2023-12-14T13:25:58;6.00;77.00
51801;DHT22;37855;53.204;6.568;2023-12-14T13:28:25;6.00;77.30
51801;DHT22;37855;53.204;6.568;2023-12-14T13:30:51;6.00;77.40
51801;DHT22;37855;53.204;6.568;2023-12-14T13:33:16;5.90;77.50
51801;DHT22;37855;53.204;6.568;2023-12-14T13:35:42;6.00;77.70
51801;DHT22;37855;53.204;6.568;2023-12-14T13:38:08;6.00;77.70
51801;DHT22;37855;53.204;6.568;2023-12-14T13:40:37;6.10;77.60
51801;DHT22;37855;53.204;6.568;2023-12-14T13:43:02;6.10;77.50
51801;DHT22;37855;53.204;6.568;2023-12-14T13:45:36;6.00;77.00
51801;DHT22;37855;53.204;6.568;2023-12-14T13:48:02;6.00;77.40
51801;DHT22;37855;53.204;6.568;2023-12-14T13:50:27;6.00;77.60
51801;DHT22;37855;53.204;6.568;2023-12-14T13:52:53;6.00;77.60
51801;DHT22;37855;53.204;6.568;2023-12-14T13:55:19;6.00;77.50
51801;DHT22;37855;53.204;6.568;2023-12-14T13:57:45;6.00;77.50
51801;DHT22;37855;53.204;6.568;2023-12-14T14:00:13;5.90;77.50
51801;DHT22;37855;53.204;6.568;2023-12-14T14:02:39;5.90;77.50
51801;DHT22;37855;53.204;6.568;2023-12-14T14:05:05;5.90;77.70
51801;DHT22;37855;53.204;6.568;2023-12-14T14:07:30;5.90;77.80
51801;DHT22;37855;53.204;6.568;2023-12-14T14:09:57;6.00;77.70
51801;DHT22;37855;53.204;6.568;2023-12-14T14:12:22;6.00;77.70
51801;DHT22;37855;53.204;6.568;2023-12-14T14:14:48;6.00;77.80
51801;DHT22;37855;53.204;6.568;2023-12-14T14:17:15;6.00;77.90
51801;DHT22;37855;53.204;6.568;2023-12-14T14:19:40;6.00;78.00
51801;DHT22;37855;53.204;6.568;2023-12-14T14:22:06;6.00;77.80
51801;DHT22;37855;53.204;6.568;2023-12-14T14:24:31;6.00;77.90
51801;DHT22;37855;53.204;6.568;2023-12-14T14:26:57;6.00;77.70
51801;DHT22;37855;53.204;6.568;2023-12-14T14:29:23;6.00;77.60
51801;DHT22;37855;53.204;6.568;2023-12-14T14:31:49;6.00;77.80
51801;DHT22;37855;53.204;6.568;2023-12-14T14:34:14;6.00;77.50
51801;DHT22;37855;53.204;6.568;2023-12-14T14:36:40;6.00;77.60
51801;DHT22;37855;53.204;6.568;2023-12-14T14:39:06;6.00;77.40
51801;DHT22;37855;53.204;6.568;2023-12-14T14:41:31;6.00;77.40
51801;DHT22;37855;53.204;6.568;2023-12-14T14:43:57;6.00;77.50
51801;DHT22;37855;53.204;6.568;2023-12-14T14:46:23;6.00;77.40
51801;DHT22;37855;53.204;6.568;2023-12-14T14:48:48;5.90;77.50
51801;DHT22;37855;53.204;6.568;2023-12-14T14:51:14;5.90;77.70
51801;DHT22;37855;53.204;6.568;2023-12-14T14:53:40;5.90;77.80
51801;DHT22;37855;53.204;6.568;2023-12-14T14:56:09;5.80;77.50
51801;DHT22;37855;53.204;6.568;2023-12-14T14:58:35;5.80;77.80
51801;DHT22;37855;53.204;6.568;2023-12-14T15:01:03;5.80;78.00
51801;DHT22;37855;53.204;6.568;2023-12-14T15:03:29;5.80;78.00
51801;DHT22;37855;53.204;6.568;2023-12-14T15:05:56;5.80;77.90
51801;DHT22;37855;53.204;6.568;2023-12-14T15:08:22;5.80;78.00
51801;DHT22;37855;53.204;6.568;2023-12-14T15:10:47;5.80;78.10
51801;DHT22;37855;53.204;6.568;2023-12-14T15:13:13;5.80;78.10
51801;DHT22;37855;53.204;6.568;2023-12-14T15:15:40;5.80;78.30
51801;DHT22;37855;53.204;6.568;2023-12-14T15:18:06;5.80;78.30
51801;DHT22;37855;53.204;6.568;2023-12-14T15:20:32;5.80;78.30
51801;DHT22;37855;53.204;6.568;2023-12-14T15:22:57;5.80;78.40
51801;DHT22;37855;53.204;6.568;2023-12-14T15:25:23;5.80;78.40
51801;DHT22;37855;53.204;6.568;2023-12-14T15:27:48;5.80;78.40
51801;DHT22;37855;53.204;6.568;2023-12-14T15:30:14;5.70;78.60
51801;DHT22;37855;53.204;6.568;2023-12-14T15:32:40;5.70;78.70
51801;DHT22;37855;53.204;6.568;2023-12-14T15:35:06;5.70;78.70
51801;DHT22;37855;53.204;6.568;2023-12-14T15:37:31;5.70;78.80
51801;DHT22;37855;53.204;6.568;2023-12-14T15:40:00;5.70;78.80
51801;DHT22;37855;53.204;6.568;2023-12-14T15:42:26;5.80;78.90
51801;DHT22;37855;53.204;6.568;2023-12-14T15:44:51;5.70;78.90